Time;durP1;ratioP1;P1;durP2;ratioP2;P2;SDS_P1;SDS_P2;PMS_P1;PMS_P2;Temp;Humidity;BMP_temperature;BMP_pressure;BME280_temperature;BME280_humidity;BME280_pressure;Samples;Min_cycle;Max_cycle;Signal;HPM_P1;HPM_P2
2021/06/24 00:01:53;;;;;;;8.20;5.67;;;12.20;88.60;;;;;;5052184;28;20049;-69
2021/06/24 00:04:19;;;;;;;8.57;5.07;;;12.20;88.60;;;;;;5052434;28;20060;-69
2021/06/24 00:06:45;;;;;;;7.77;5.37;;;12.20;88.70;;;;;;5052646;28;20131;-69
2021/06/24 00:09:11;;;;;;;8.87;5.53;;;12.10;88.70;;;;;;5051424;28;20052;-69
2021/06/24 00:11:38;;;;;;;9.93;5.60;;;12.10;88.80;;;;;;5052742;28;20053;-69
2021/06/24 00:14:03;;;;;;;7.80;5.73;;;12.10;89.10;;;;;;5052374;28;20055;-69
2021/06/24 00:16:29;;;;;;;5.27;4.60;;;12.00;89.30;;;;;;5051828;28;20049;-68
2021/06/24 00:18:55;;;;;;;7.70;5.07;;;12.00;89.40;;;;;;5052593;28;20049;-69
2021/06/24 00:21:22;;;;;;;7.23;5.83;;;12.00;89.40;;;;;;5051951;28;20510;-69
2021/06/24 00:23:48;;;;;;;7.23;5.17;;;12.00;89.50;;;;;;5051438;28;20065;-69
2021/06/24 00:26:14;;;;;;;8.37;5.63;;;12.00;89.70;;;;;;5052111;28;20107;-69
2021/06/24 00:28:40;;;;;;;7.97;5.83;;;12.00;89.80;;;;;;5052040;28;20049;-69
2021/06/24 00:31:06;;;;;;;7.00;5.70;;;12.10;89.80;;;;;;5051231;28;20045;-69
2021/06/24 00:33:32;;;;;;;7.90;5.87;;;12.10;89.80;;;;;;5052234;28;20040;-70
2021/06/24 00:35:57;;;;;;;9.60;5.90;;;12.20;89.60;;;;;;5051480;28;20049;-69
2021/06/24 00:38:23;;;;;;;11.27;5.90;;;12.20;89.30;;;;;;5051950;28;20045;-69
2021/06/24 00:40:49;;;;;;;7.13;5.57;;;12.20;89.10;;;;;;5051932;28;20049;-69
2021/06/24 00:43:18;;;;;;;10.40;6.60;;;12.30;89.00;;;;;;5051113;28;20072;-69
2021/06/24 00:45:45;;;;;;;8.43;6.23;;;12.30;88.80;;;;;;5052077;28;20049;-69
2021/06/24 00:48:11;;;;;;;5.53;4.00;;;12.30;88.70;;;;;;5051586;28;20433;-69
2021/06/24 00:50:39;;;;;;;7.73;5.20;;;12.30;88.60;;;;;;5051137;28;20056;-69
2021/06/24 00:53:04;;;;;;;6.20;4.97;;;12.40;88.70;;;;;;5051680;28;20138;-69
2021/06/24 00:55:40;;;;;;;7.93;4.93;;;12.40;88.80;;;;;;5051861;28;20475;-69
2021/06/24 00:58:17;;;;;;;13.83;5.43;;;12.40;88.80;;;;;;5050761;28;20053;-69
2021/06/24 01:00:45;;;;;;;6.47;5.40;;;12.40;88.80;;;;;;5051767;28;20056;-69
2021/06/24 01:03:12;;;;;;;8.50;5.10;;;12.50;88.90;;;;;;5051251;28;20045;-69
2021/06/24 01:05:38;;;;;;;10.80;5.30;;;12.50;88.90;;;;;;5050357;28;20182;-69
2021/06/24 01:08:07;;;;;;;8.63;5.40;;;12.50;89.00;;;;;;5051394;28;20075;-69
2021/06/24 01:10:34;;;;;;;6.23;4.73;;;12.50;88.90;;;;;;5051596;28;20048;-69
2021/06/24 01:13:01;;;;;;;7.93;5.70;;;12.50;89.10;;;;;;5050718;28;20137;-69
2021/06/24 01:15:26;;;;;;;5.93;4.73;;;12.50;89.20;;;;;;5051436;28;20124;-69
2021/06/24 01:17:56;;;;;;;9.47;5.40;;;12.50;89.10;;;;;;5051322;28;20086;-69
2021/06/24 01:20:24;;;;;;;8.33;4.73;;;12.50;89.20;;;;;;5050780;28;20131;-70
2021/06/24 01:22:51;;;;;;;8.07;6.13;;;12.50;89.30;;;;;;5051422;28;20053;-69
2021/06/24 01:25:17;;;;;;;8.47;5.27;;;12.50;89.20;;;;;;5032094;28;20083;-68
2021/06/24 01:27:42;;;;;;;10.20;5.20;;;12.50;89.30;;;;;;5050827;28;20053;-68
2021/06/24 01:30:09;;;;;;;7.53;5.13;;;12.50;89.30;;;;;;5050526;28;20052;-68
2021/06/24 01:32:35;;;;;;;7.27;5.17;;;12.50;89.40;;;;;;5050316;28;20052;-68
2021/06/24 01:35:01;;;;;;;8.40;5.73;;;12.50;89.50;;;;;;5050681;28;20048;-68
2021/06/24 01:37:28;;;;;;;6.43;5.20;;;12.50;89.70;;;;;;5051015;28;20058;-67
2021/06/24 01:39:53;;;;;;;6.33;5.57;;;12.50;89.70;;;;;;5050110;28;20045;-68
2021/06/24 01:42:19;;;;;;;9.83;5.07;;;12.50;89.70;;;;;;5050228;28;20485;-68
2021/06/24 01:44:44;;;;;;;7.20;4.83;;;12.50;89.90;;;;;;5050702;28;20434;-68
2021/06/24 01:47:12;;;;;;;5.40;4.47;;;12.50;90.00;;;;;;5049492;28;20053;-67
2021/06/24 01:49:38;;;;;;;7.90;5.27;;;12.50;90.00;;;;;;5050826;28;20163;-68
2021/06/24 01:52:04;;;;;;;7.30;4.97;;;12.50;90.00;;;;;;5050502;28;20052;-68
2021/06/24 01:54:29;;;;;;;8.13;5.67;;;12.60;90.00;;;;;;5049905;28;20052;-68
2021/06/24 01:56:55;;;;;;;5.70;4.97;;;12.60;90.50;;;;;;5050606;28;20049;-68
2021/06/24 01:59:21;;;;;;;7.60;5.47;;;12.60;90.10;;;;;;5050218;28;20096;-68
2021/06/24 02:01:46;;;;;;;9.53;5.53;;;12.60;90.10;;;;;;5050000;28;20045;-68
2021/06/24 02:04:12;;;;;;;7.83;5.47;;;12.60;90.10;;;;;;5050695;28;20048;-68
2021/06/24 02:06:38;;;;;;;6.10;5.50;;;12.60;90.20;;;;;;5050819;28;20099;-68
2021/06/24 02:09:04;;;;;;;12.73;6.37;;;12.60;90.20;;;;;;5049640;28;20053;-69
2021/06/24 02:11:31;;;;;;;8.97;6.57;;;12.60;90.20;;;;;;5050626;28;20073;-69
2021/06/24 02:13:56;;;;;;;9.30;6.50;;;12.60;90.20;;;;;;5050518;28;20128;-68
2021/06/24 02:16:22;;;;;;;9.53;7.67;;;12.60;90.20;;;;;;5049544;28;20123;-68
2021/06/24 02:18:48;;;;;;;8.50;7.00;;;12.50;90.30;;;;;;5054005;28;20053;-68
2021/06/24 02:21:13;;;;;;;7.37;6.67;;;12.50;90.40;;;;;;5054588;28;20044;-68
2021/06/24 02:23:39;;;;;;;8.37;7.43;;;12.50;90.40;;;;;;5054126;28;20048;-69
2021/06/24 02:26:05;;;;;;;8.07;6.83;;;12.60;90.50;;;;;;5053774;28;20115;-69
2021/06/24 02:28:31;;;;;;;8.33;6.87;;;12.60;90.50;;;;;;5053513;28;20059;-68
2021/06/24 02:30:56;;;;;;;7.73;6.87;;;12.60;90.50;;;;;;5054291;28;20049;-68
2021/06/24 02:33:22;;;;;;;11.30;7.10;;;12.70;90.50;;;;;;5054226;28;20129;-68
2021/06/24 02:35:57;;;;;;;10.17;6.90;;;12.70;90.50;;;;;;5053706;28;20065;-68
2021/06/24 02:38:24;;;;;;;11.73;6.77;;;12.80;90.60;;;;;;5054252;28;20055;-68
2021/06/24 02:40:49;;;;;;;11.93;7.10;;;12.80;90.50;;;;;;5054016;28;20106;-69
2021/06/24 02:43:15;;;;;;;8.00;6.90;;;12.80;90.60;;;;;;5052963;28;20045;-69
2021/06/24 02:45:42;;;;;;;7.20;6.50;;;12.90;90.50;;;;;;5054156;28;20506;-68
2021/06/24 02:48:13;;;;;;;8.13;7.03;;;12.90;90.50;;;;;;5053781;28;20099;-69
2021/06/24 02:50:46;;;;;;;12.80;7.13;;;12.90;90.50;;;;;;5053298;28;20052;-68
2021/06/24 02:53:12;;;;;;;10.70;7.73;;;12.90;90.50;;;;;;5053772;28;20053;-69
2021/06/24 02:55:38;;;;;;;9.60;6.67;;;12.90;90.40;;;;;;5053859;28;20049;-68
2021/06/24 02:58:03;;;;;;;9.03;7.37;;;12.90;90.40;;;;;;5052974;28;20057;-68
2021/06/24 03:00:29;;;;;;;8.80;7.20;;;13.00;90.40;;;;;;5054143;28;20049;-68
2021/06/24 03:02:55;;;;;;;9.83;8.73;;;13.00;90.40;;;;;;5053906;28;20126;-68
2021/06/24 03:05:21;;;;;;;10.83;7.17;;;13.00;90.50;;;;;;5052679;28;20099;-69
2021/06/24 03:07:47;;;;;;;9.67;6.37;;;13.00;90.50;;;;;;5053688;28;20497;-68
2021/06/24 03:10:14;;;;;;;7.87;6.37;;;13.00;90.50;;;;;;5053489;28;20138;-69
2021/06/24 03:12:40;;;;;;;8.97;6.77;;;13.00;90.50;;;;;;5053090;28;20049;-68
2021/06/24 03:15:07;;;;;;;9.93;7.17;;;13.00;90.50;;;;;;5053216;28;20060;-69
2021/06/24 03:17:35;;;;;;;10.50;6.20;;;13.00;90.50;;;;;;5052821;28;20053;-68
2021/06/24 03:20:03;;;;;;;8.10;5.87;;;13.00;90.50;;;;;;5052981;28;20421;-69
2021/06/24 03:22:28;;;;;;;7.37;6.63;;;13.10;90.50;;;;;;5053436;28;20131;-69
2021/06/24 03:24:59;;;;;;;8.83;6.80;;;13.10;90.50;;;;;;5052512;28;20061;-69
2021/06/24 03:27:25;;;;;;;7.03;6.23;;;13.10;90.50;;;;;;5053694;28;20143;-69
2021/06/24 03:29:50;;;;;;;10.60;6.40;;;13.20;90.50;;;;;;5052406;28;20137;-69
2021/06/24 03:32:16;;;;;;;8.20;5.80;;;13.20;90.50;;;;;;5052286;28;20049;-68
2021/06/24 03:34:42;;;;;;;7.30;6.17;;;13.20;90.50;;;;;;5053165;28;20087;-69
2021/06/24 03:37:07;;;;;;;12.07;6.47;;;13.20;90.50;;;;;;5052890;28;20474;-69
2021/06/24 03:39:33;;;;;;;7.80;6.07;;;13.20;90.50;;;;;;5052337;28;20435;-68
2021/06/24 03:41:59;;;;;;;10.03;6.30;;;13.20;90.60;;;;;;5034620;28;20482;-69
2021/06/24 03:44:24;;;;;;;8.60;6.00;;;13.20;90.50;;;;;;5052936;28;20069;-68
2021/06/24 03:46:50;;;;;;;8.40;5.70;;;13.30;90.50;;;;;;5052343;28;20072;-68
2021/06/24 03:49:17;;;;;;;9.03;6.27;;;13.30;90.70;;;;;;5052486;28;20088;-69
2021/06/24 03:51:43;;;;;;;10.27;6.60;;;13.30;90.40;;;;;;5052837;28;20515;-68
2021/06/24 03:54:08;;;;;;;9.27;6.03;;;13.30;90.30;;;;;;5051611;28;20144;-68
2021/06/24 03:56:34;;;;;;;9.20;6.20;;;13.30;90.30;;;;;;5052776;28;20064;-68
2021/06/24 03:58:59;;;;;;;8.77;6.60;;;13.20;90.30;;;;;;5052533;28;20198;-68
2021/06/24 04:01:25;;;;;;;7.10;6.40;;;13.10;90.30;;;;;;5052038;28;20045;-68
2021/06/24 04:03:57;;;;;;;7.40;6.67;;;13.10;90.30;;;;;;5052713;28;20053;-68
2021/06/24 04:06:23;;;;;;;;;;;13.00;90.30;;;;;;5052753;28;20066;-68
2021/06/24 04:08:48;;;;;;;8.90;6.73;;;13.00;90.30;;;;;;5051651;28;20222;-68
2021/06/24 04:11:14;;;;;;;10.47;6.23;;;13.00;90.30;;;;;;5052310;28;20431;-68
2021/06/24 04:13:40;;;;;;;10.57;6.17;;;12.90;90.20;;;;;;5052604;28;20057;-68
2021/06/24 04:16:06;;;;;;;8.93;5.67;;;12.90;90.20;;;;;;5051251;28;20512;-68
2021/06/24 04:18:38;;;;;;;9.07;6.70;;;13.00;90.20;;;;;;5052243;28;20049;-68
2021/06/24 04:21:05;;;;;;;10.93;6.20;;;12.90;90.20;;;;;;5051204;28;20402;-68
2021/06/24 04:23:30;;;;;;;9.77;6.43;;;13.00;90.30;;;;;;5052214;28;20478;-68
2021/06/24 04:25:57;;;;;;;7.53;6.40;;;13.00;90.30;;;;;;5052085;28;20220;-68
2021/06/24 04:28:25;;;;;;;8.00;6.67;;;13.00;90.20;;;;;;5051288;28;20150;-68
2021/06/24 04:30:51;;;;;;;9.30;6.47;;;13.00;90.30;;;;;;5051924;28;20211;-67
2021/06/24 04:33:22;;;;;;;8.20;6.23;;;13.00;90.30;;;;;;5051495;28;20051;-68
2021/06/24 04:35:48;;;;;;;8.27;6.83;;;13.00;90.30;;;;;;5050416;28;20079;-68
2021/06/24 04:38:14;;;;;;;7.63;6.60;;;13.00;90.30;;;;;;5051475;28;20045;-68
2021/06/24 04:40:40;;;;;;;8.93;6.50;;;13.00;90.30;;;;;;5051548;28;20053;-67
2021/06/24 04:43:05;;;;;;;7.70;6.87;;;13.00;90.30;;;;;;5050503;28;20171;-68
2021/06/24 04:45:31;;;;;;;7.70;6.50;;;13.00;90.20;;;;;;5051146;28;20056;-67
2021/06/24 04:47:57;;;;;;;8.27;6.57;;;13.10;90.20;;;;;;5050358;28;20377;-67
2021/06/24 04:50:23;;;;;;;12.77;7.10;;;13.00;90.20;;;;;;5050565;28;20045;-67
2021/06/24 04:52:48;;;;;;;8.10;7.03;;;13.00;90.20;;;;;;5051345;28;20049;-67
2021/06/24 04:55:14;;;;;;;7.73;6.33;;;13.00;90.20;;;;;;5051162;28;20501;-68
2021/06/24 04:57:40;;;;;;;8.47;6.47;;;13.10;90.20;;;;;;5050614;28;20045;-68
2021/06/24 05:00:07;;;;;;;8.53;6.43;;;13.10;90.30;;;;;;5050669;28;20072;-67
2021/06/24 05:02:34;;;;;;;10.27;6.97;;;13.20;90.20;;;;;;5051166;28;20129;-68
2021/06/24 05:05:01;;;;;;;8.63;6.73;;;13.30;90.00;;;;;;5049882;28;20462;-68
2021/06/24 05:07:27;;;;;;;9.10;6.50;;;13.30;89.80;;;;;;5051115;28;20471;-67
2021/06/24 05:09:52;;;;;;;7.00;6.00;;;13.30;89.30;;;;;;5033121;28;20132;-67
2021/06/24 05:12:18;;;;;;;6.50;5.80;;;13.40;89.10;;;;;;5050035;28;20531;-67
2021/06/24 05:14:44;;;;;;;6.47;5.77;;;13.40;88.90;;;;;;5050892;28;20083;-67
2021/06/24 05:17:14;;;;;;;10.53;5.97;;;13.40;88.70;;;;;;5049837;28;20100;-68
2021/06/24 05:19:42;;;;;;;6.90;5.83;;;13.40;88.60;;;;;;5050595;28;20504;-68
2021/06/24 05:22:11;;;;;;;9.40;6.47;;;13.50;88.70;;;;;;5050527;28;20203;-68
2021/06/24 05:24:38;;;;;;;11.83;6.43;;;13.50;88.60;;;;;;5050177;28;20208;-67
2021/06/24 05:27:08;;;;;;;6.30;5.70;;;13.60;88.60;;;;;;5032670;28;20056;-67
2021/06/24 05:29:34;;;;;;;5.70;5.10;;;13.60;88.60;;;;;;5050018;28;20539;-67
2021/06/24 05:32:03;;;;;;;9.60;5.50;;;13.70;88.50;;;;;;5049393;28;20052;-67
2021/06/24 05:34:31;;;;;;;9.40;5.63;;;13.80;88.40;;;;;;5050906;28;20045;-67
2021/06/24 05:36:56;;;;;;;6.53;5.80;;;13.80;88.10;;;;;;5050700;28;20167;-68
2021/06/24 05:39:23;;;;;;;6.57;5.33;;;13.80;87.90;;;;;;5050087;28;20131;-68
2021/06/24 05:41:48;;;;;;;8.27;5.70;;;13.90;87.70;;;;;;5050447;28;20154;-68
2021/06/24 05:44:14;;;;;;;7.17;4.63;;;14.00;87.40;;;;;;5050272;28;20060;-68
2021/06/24 05:46:39;;;;;;;5.70;5.00;;;14.00;87.20;;;;;;5049663;28;20044;-68
2021/06/24 05:49:05;;;;;;;7.20;5.30;;;14.10;87.20;;;;;;5049770;28;20053;-68
2021/06/24 05:51:31;;;;;;;9.13;5.90;;;14.10;86.80;;;;;;5051316;28;20044;-67
2021/06/24 05:53:57;;;;;;;8.20;5.07;;;14.20;86.40;;;;;;5055840;28;20053;-68
2021/06/24 05:56:24;;;;;;;9.97;5.07;;;14.20;86.30;;;;;;5057079;28;20045;-68
2021/06/24 05:58:50;;;;;;;8.13;5.90;;;14.30;86.20;;;;;;5057012;28;20049;-67
2021/06/24 06:01:16;;;;;;;5.87;5.23;;;14.30;85.70;;;;;;5055727;28;20049;-67
2021/06/24 06:03:42;;;;;;;9.10;5.47;;;14.30;85.20;;;;;;5056966;28;20522;-68
2021/06/24 06:06:08;;;;;;;8.27;5.40;;;14.20;84.90;;;;;;5056637;28;20084;-68
2021/06/24 06:08:34;;;;;;;7.27;5.50;;;14.30;85.10;;;;;;5056212;28;20048;-68
2021/06/24 06:10:59;;;;;;;8.13;5.80;;;14.20;84.80;;;;;;5056863;28;20053;-68
2021/06/24 06:13:25;;;;;;;7.47;5.10;;;14.20;84.50;;;;;;5056225;28;20144;-68
2021/06/24 06:15:52;;;;;;;6.60;5.30;;;14.20;84.10;;;;;;5057130;28;20135;-67
2021/06/24 06:18:21;;;;;;;5.37;4.83;;;14.30;83.90;;;;;;5056923;28;20145;-68
2021/06/24 06:20:48;;;;;;;7.37;5.60;;;14.40;83.80;;;;;;5056318;28;20098;-68
2021/06/24 06:23:16;;;;;;;8.23;5.47;;;14.40;83.40;;;;;;5056822;28;20076;-68
2021/06/24 06:25:44;;;;;;;8.40;5.10;;;14.50;83.50;;;;;;5057191;28;20044;-69
2021/06/24 06:28:11;;;;;;;9.17;5.30;;;14.50;83.60;;;;;;5055726;28;20057;-69
2021/06/24 06:30:37;;;;;;;9.10;5.00;;;14.50;83.40;;;;;;5057141;28;20049;-69
2021/06/24 06:33:03;;;;;;;7.80;5.10;;;14.60;83.10;;;;;;5056690;28;20115;-69
2021/06/24 06:35:35;;;;;;;6.57;4.30;;;14.60;82.90;;;;;;5056447;28;20401;-68
2021/06/24 06:38:02;;;;;;;7.77;4.43;;;14.60;82.30;;;;;;5056676;28;20134;-68
2021/06/24 06:40:28;;;;;;;6.13;4.30;;;14.60;81.80;;;;;;5056813;28;20044;-68
2021/06/24 06:42:54;;;;;;;10.20;5.33;;;14.60;81.90;;;;;;5056072;28;20077;-67
2021/06/24 06:45:22;;;;;;;8.93;5.00;;;14.50;81.90;;;;;;5056525;28;20063;-68
2021/06/24 06:47:48;;;;;;;8.00;3.30;;;14.50;81.90;;;;;;5056741;28;20053;-68
2021/06/24 06:50:15;;;;;;;5.50;3.60;;;14.60;81.80;;;;;;5055750;28;20045;-68
2021/06/24 06:52:42;;;;;;;5.27;3.77;;;14.60;81.80;;;;;;5056823;28;20064;-69
2021/06/24 06:55:08;;;;;;;8.33;3.90;;;14.60;81.70;;;;;;5056384;28;20555;-68
2021/06/24 06:57:34;;;;;;;5.33;3.77;;;14.60;82.00;;;;;;5056071;28;20063;-68
2021/06/24 06:59:59;;;;;;;7.73;3.30;;;14.60;81.80;;;;;;5056330;28;20045;-69
2021/06/24 07:02:25;;;;;;;8.37;4.20;;;14.60;82.10;;;;;;5056811;28;20060;-69
2021/06/24 07:04:50;;;;;;;6.00;3.60;;;14.60;81.60;;;;;;5053278;28;20041;-69
2021/06/24 07:07:16;;;;;;;5.43;3.70;;;14.50;81.60;;;;;;5053237;28;20224;-69
2021/06/24 07:09:42;;;;;;;5.87;3.63;;;14.60;82.00;;;;;;5052831;28;20052;-70
2021/06/24 07:12:08;;;;;;;3.73;3.00;;;14.70;81.50;;;;;;5053108;28;20045;-70
2021/06/24 07:14:34;;;;;;;7.90;3.50;;;14.80;80.80;;;;;;5053542;28;20136;-69
2021/06/24 07:17:00;;;;;;;4.20;3.37;;;14.80;80.70;;;;;;5052490;28;20770;-70
2021/06/24 07:19:25;;;;;;;4.90;3.50;;;14.90;80.20;;;;;;5053557;28;20049;-70
2021/06/24 07:21:51;;;;;;;7.03;4.30;;;15.00;80.00;;;;;;5053523;28;20431;-69
2021/06/24 07:24:19;;;;;;;7.20;3.80;;;15.10;79.90;;;;;;5052407;28;20897;-70
2021/06/24 07:26:44;;;;;;;8.73;4.30;;;15.20;79.90;;;;;;5053609;28;20485;-69
2021/06/24 07:29:11;;;;;;;6.70;4.40;;;15.20;79.90;;;;;;5053137;28;20056;-69
2021/06/24 07:31:36;;;;;;;5.53;4.60;;;15.30;80.00;;;;;;5052522;28;20049;-69
2021/06/24 07:34:02;;;;;;;6.13;4.07;;;15.30;79.90;;;;;;5052962;28;20464;-68
2021/06/24 07:36:28;;;;;;;5.50;4.07;;;15.30;80.00;;;;;;5053274;28;20405;-69
2021/06/24 07:38:53;;;;;;;4.40;3.50;;;15.30;79.90;;;;;;5052216;28;20079;-69
2021/06/24 07:41:20;;;;;;;6.30;3.63;;;15.30;80.10;;;;;;5052320;28;20474;-69
2021/06/24 07:43:46;;;;;;;6.83;4.10;;;15.30;79.70;;;;;;5052549;28;20132;-69
2021/06/24 07:46:12;;;;;;;7.13;4.10;;;15.30;79.60;;;;;;5051919;28;20084;-69
2021/06/24 07:48:37;;;;;;;5.80;3.70;;;15.30;79.80;;;;;;5051677;28;20053;-69
2021/06/24 07:51:05;;;;;;;5.40;3.70;;;15.30;79.70;;;;;;5051523;28;20139;-69
2021/06/24 07:53:30;;;;;;;4.70;3.50;;;15.30;79.50;;;;;;5051523;28;20123;-70
2021/06/24 07:55:56;;;;;;;4.17;3.33;;;15.30;79.20;;;;;;5052361;28;20049;-67
2021/06/24 07:58:22;;;;;;;5.03;3.10;;;15.40;79.40;;;;;;5051881;28;20133;-68
2021/06/24 08:00:47;;;;;;;6.53;3.47;;;15.30;78.60;;;;;;5051159;28;20045;-68
2021/06/24 08:03:16;;;;;;;3.87;3.07;;;15.30;78.90;;;;;;5051858;28;20075;-69
2021/06/24 08:05:41;;;;;;;11.37;3.40;;;15.30;78.60;;;;;;5048980;28;20045;-68
2021/06/24 08:08:07;;;;;;;5.23;3.47;;;15.30;78.80;;;;;;5050306;28;20041;-68
2021/06/24 08:10:36;;;;;;;5.30;3.27;;;15.40;79.00;;;;;;5050977;28;20045;-67
2021/06/24 08:13:01;;;;;;;5.07;3.00;;;15.40;78.80;;;;;;5050858;28;20052;-68
2021/06/24 08:15:28;;;;;;;7.50;2.70;;;15.40;78.80;;;;;;5051139;28;20072;-68
2021/06/24 08:17:55;;;;;;;4.00;2.20;;;15.40;78.10;;;;;;5052269;28;20045;-68
2021/06/24 08:20:21;;;;;;;4.73;2.63;;;15.40;77.80;;;;;;5050835;28;20080;-68
2021/06/24 08:22:47;;;;;;;2.47;2.27;;;15.40;77.60;;;;;;5051892;28;20128;-68
2021/06/24 08:25:14;;;;;;;5.33;3.10;;;15.40;77.90;;;;;;5051642;28;20184;-68
2021/06/24 08:27:39;;;;;;;5.07;2.80;;;15.50;77.80;;;;;;5051290;28;20052;-68
2021/06/24 08:30:08;;;;;;;6.03;2.90;;;15.60;77.60;;;;;;5051507;28;20130;-69
2021/06/24 08:32:34;;;;;;;5.30;3.77;;;15.70;77.60;;;;;;5051767;28;20110;-68
2021/06/24 08:35:00;;;;;;;4.67;3.97;;;15.70;77.50;;;;;;5050531;28;20049;-69
2021/06/24 08:37:26;;;;;;;4.13;3.70;;;15.90;77.80;;;;;;5051927;28;20045;-68
2021/06/24 08:39:52;;;;;;;5.33;3.40;;;16.10;77.80;;;;;;5051801;28;20051;-68
2021/06/24 08:42:18;;;;;;;4.63;3.60;;;16.30;77.00;;;;;;5050680;28;20140;-68
2021/06/24 08:44:47;;;;;;;5.27;3.83;;;16.40;76.90;;;;;;5051424;28;20462;-69
2021/06/24 08:47:16;;;;;;;4.23;3.30;;;16.40;76.70;;;;;;5051498;28;20132;-69
2021/06/24 08:49:42;;;;;;;5.30;4.57;;;16.40;76.90;;;;;;5050450;28;20579;-69
2021/06/24 08:52:10;;;;;;;6.20;3.80;;;16.40;77.00;;;;;;5051417;28;20465;-68
2021/06/24 08:54:36;;;;;;;6.27;4.73;;;16.30;76.90;;;;;;5051611;28;20057;-69
2021/06/24 08:57:02;;;;;;;7.37;4.40;;;16.30;76.60;;;;;;5050687;28;20493;-70
2021/06/24 08:59:27;;;;;;;6.23;4.20;;;16.30;76.70;;;;;;5051285;28;20143;-70
2021/06/24 09:01:58;;;;;;;5.10;4.00;;;16.30;76.70;;;;;;5051475;28;20458;-69
2021/06/24 09:04:31;;;;;;;6.50;4.77;;;16.20;76.70;;;;;;5050398;28;20414;-70
2021/06/24 09:07:09;;;;;;;6.83;4.53;;;16.10;76.80;;;;;;5051010;28;20435;-71
2021/06/24 09:09:37;;;;;;;9.00;4.13;;;16.10;76.90;;;;;;5050528;28;20117;-70
2021/06/24 09:12:08;;;;;;;6.07;4.23;;;16.20;76.90;;;;;;5050553;28;20240;-71
2021/06/24 09:14:44;;;;;;;7.40;5.00;;;16.20;76.50;;;;;;5051055;28;20109;-71
2021/06/24 09:17:31;;;;;;;7.30;5.10;;;16.20;76.00;;;;;;5050261;28;20128;-71
2021/06/24 09:19:57;;;;;;;6.90;5.53;;;16.20;76.40;;;;;;5051714;28;20069;-70
2021/06/24 09:22:22;;;;;;;9.17;5.90;;;16.20;76.70;;;;;;5051334;28;20076;-70
2021/06/24 09:24:49;;;;;;;6.80;5.67;;;16.20;76.90;;;;;;5050559;28;20056;-70
2021/06/24 09:27:24;;;;;;;9.17;5.47;;;16.20;76.60;;;;;;5049751;28;20098;-70
2021/06/24 09:29:59;;;;;;;8.03;5.07;;;16.20;76.40;;;;;;5051070;28;20101;-71
2021/06/24 09:32:39;;;;;;;11.33;5.93;;;16.30;76.50;;;;;;5050229;28;20118;-70
2021/06/24 09:35:07;;;;;;;8.50;5.53;;;16.30;76.40;;;;;;5050793;28;20055;-71
2021/06/24 09:37:58;;;;;;;11.63;5.97;;;16.30;76.10;;;;;;5050349;28;20045;-70
2021/06/24 09:40:36;;;;;;;7.33;5.50;;;16.40;76.20;;;;;;5051017;28;20067;-70
2021/06/24 09:43:02;;;;;;;8.43;5.17;;;16.40;76.00;;;;;;5050361;28;20409;-72
2021/06/24 09:45:28;;;;;;;5.53;4.97;;;16.30;75.40;;;;;;5049947;28;20091;-71
2021/06/24 09:48:10;;;;;;;9.87;5.93;;;16.30;75.60;;;;;;5050741;28;20041;-70
2021/06/24 09:50:39;;;;;;;8.50;6.40;;;16.30;75.30;;;;;;5050841;28;20049;-71
2021/06/24 09:53:13;;;;;;;9.13;5.70;;;16.40;75.80;;;;;;5049308;28;20350;-70
2021/06/24 09:55:40;;;;;;;6.63;5.50;;;16.40;75.70;;;;;;5049522;28;20117;-70
2021/06/24 09:58:16;;;;;;;8.90;5.47;;;16.50;75.70;;;;;;5048010;28;20053;-71
2021/06/24 10:00:50;;;;;;;6.50;5.50;;;16.60;74.70;;;;;;5048643;28;20053;-70
2021/06/24 10:03:15;;;;;;;8.10;5.20;;;16.60;75.00;;;;;;5049359;28;20045;-71
2021/06/24 10:05:42;;;;;;;7.53;5.47;;;16.60;74.90;;;;;;5049041;28;20067;-70
2021/06/24 10:08:08;;;;;;;7.13;5.37;;;16.70;75.00;;;;;;5049549;28;20485;-71
2021/06/24 10:10:34;;;;;;;8.57;5.93;;;16.70;74.90;;;;;;5049803;28;20053;-70
2021/06/24 10:13:00;;;;;;;6.93;5.53;;;16.70;74.80;;;;;;5048807;28;20052;-70
2021/06/24 10:15:28;;;;;;;8.60;5.40;;;16.70;74.80;;;;;;5050441;28;20057;-75
2021/06/24 10:17:56;;;;;;;5.53;5.00;;;16.70;74.80;;;;;;5050191;28;20071;-71
2021/06/24 10:20:23;;;;;;;5.30;4.80;;;16.70;74.50;;;;;;5049927;28;20350;-72
2021/06/24 10:23:07;;;;;;;7.87;6.20;;;16.70;74.70;;;;;;5050245;28;20045;-71
2021/06/24 10:25:33;;;;;;;6.50;5.90;;;16.70;75.00;;;;;;5050671;28;20124;-71
2021/06/24 10:28:00;;;;;;;9.53;6.03;;;16.70;75.00;;;;;;5048911;28;20131;-70
2021/06/24 10:30:38;;;;;;;6.90;5.60;;;16.70;74.80;;;;;;5050536;28;20052;-70
2021/06/24 10:33:09;;;;;;;8.80;5.23;;;16.70;74.20;;;;;;5049167;28;20049;-70
2021/06/24 10:35:37;;;;;;;5.63;4.97;;;16.70;74.60;;;;;;5049069;28;20068;-69
2021/06/24 10:38:04;;;;;;;6.10;5.50;;;16.70;74.30;;;;;;5050133;28;20152;-69
2021/06/24 10:40:33;;;;;;;6.73;5.07;;;16.70;74.70;;;;;;5054172;28;20124;-69
2021/06/24 10:43:20;;;;;;;5.70;4.83;;;16.70;74.50;;;;;;5052767;28;20103;-69
2021/06/24 10:45:47;;;;;;;5.37;4.87;;;16.70;74.70;;;;;;5054102;28;20473;-69
2021/06/24 10:48:31;;;;;;;6.13;5.53;;;16.70;74.90;;;;;;5052859;28;20128;-69
2021/06/24 10:51:08;;;;;;;5.87;5.37;;;16.70;74.80;;;;;;5053906;28;20057;-70
2021/06/24 10:53:36;;;;;;;6.50;5.87;;;16.70;74.80;;;;;;5053548;28;20086;-70
2021/06/24 10:56:20;;;;;;;7.97;5.70;;;16.70;74.70;;;;;;5051214;28;20554;-70
2021/06/24 10:58:45;;;;;;;6.33;5.70;;;16.70;74.00;;;;;;5051693;28;20055;-70
2021/06/24 11:01:14;;;;;;;8.53;5.63;;;16.70;74.60;;;;;;5051429;28;20445;-70
2021/06/24 11:03:41;;;;;;;7.07;5.40;;;16.70;75.40;;;;;;5051623;28;20113;-70
2021/06/24 11:06:15;;;;;;;6.97;5.83;;;16.70;74.30;;;;;;5052081;28;20110;-70
2021/06/24 11:08:42;;;;;;;6.57;5.10;;;16.70;74.70;;;;;;5052185;28;20057;-69
2021/06/24 11:11:12;;;;;;;6.33;5.00;;;16.70;74.50;;;;;;5051717;28;20069;-70
2021/06/24 11:13:42;;;;;;;5.73;5.13;;;16.70;74.70;;;;;;5053316;28;20045;-70
2021/06/24 11:16:13;;;;;;;5.90;4.87;;;16.60;74.70;;;;;;5052448;28;20063;-70
2021/06/24 11:18:44;;;;;;;6.45;4.65;;;16.70;74.80;;;;;;5053657;28;20048;-70
2021/06/24 11:21:24;;;;;;;6.05;5.15;;;16.70;75.00;;;;;;5053031;28;20467;-70
2021/06/24 11:23:58;;;;;;;7.53;5.17;;;16.80;74.90;;;;;;5052470;28;20055;-70
2021/06/24 11:26:27;;;;;;;8.10;4.80;;;16.70;74.30;;;;;;5053181;28;20052;-70
2021/06/24 11:28:56;;;;;;;7.57;4.47;;;16.80;74.20;;;;;;5052979;28;20136;-70
2021/06/24 11:31:41;;;;;;;5.80;5.20;;;16.70;73.80;;;;;;5051992;28;20110;-70
2021/06/24 11:36:53;;;;;;;7.10;5.23;;;16.80;74.40;;;;;;5053057;28;20049;-71
2021/06/24 11:39:34;;;;;;;6.13;4.60;;;16.80;73.70;;;;;;5052196;28;20508;-70
2021/06/24 11:42:02;;;;;;;5.25;4.80;;;16.90;73.70;;;;;;5052490;28;20064;-71
2021/06/24 11:44:31;;;;;;;7.33;5.50;;;16.90;73.20;;;;;;5052362;28;20390;-70
2021/06/24 11:46:59;;;;;;;5.27;4.50;;;17.00;73.50;;;;;;5052790;28;20072;-70
2021/06/24 12:00:24;;;;;;;5.63;4.73;;;17.00;73.70;;;;;;5052742;28;20064;-70
2021/06/24 12:04:15;;;;;;;5.87;5.37;;;17.20;73.40;;;;;;5052313;28;20045;-70
2021/06/24 12:07:00;;;;;;;6.33;5.30;;;17.20;73.50;;;;;;5051713;28;20385;-70
2021/06/24 12:09:37;;;;;;;6.17;5.33;;;17.20;73.40;;;;;;5052543;28;20119;-70
2021/06/24 12:12:03;;;;;;;6.77;5.10;;;17.20;73.40;;;;;;5051555;28;20055;-70
2021/06/24 12:14:31;;;;;;;6.37;5.77;;;17.30;73.50;;;;;;5052110;28;20131;-70
2021/06/24 12:17:15;;;;;;;7.03;5.27;;;17.40;73.30;;;;;;5052156;28;20480;-70
2021/06/24 12:19:50;;;;;;;7.00;5.63;;;17.40;73.10;;;;;;5051742;28;20076;-70
2021/06/24 12:22:18;;;;;;;7.50;5.43;;;17.40;72.90;;;;;;5052098;28;20049;-70
2021/06/24 12:24:44;;;;;;;7.83;6.20;;;17.40;73.10;;;;;;5052457;28;20052;-70
2021/06/24 12:27:28;;;;;;;6.50;5.90;;;17.50;72.80;;;;;;5051327;28;20049;-70
2021/06/24 12:29:58;;;;;;;6.43;5.53;;;17.50;72.60;;;;;;5051257;28;20098;-70
2021/06/24 12:32:24;;;;;;;6.60;5.67;;;17.50;72.70;;;;;;5049721;28;20076;-70
2021/06/24 12:34:54;;;;;;;6.63;5.17;;;17.50;72.90;;;;;;5049844;28;20124;-70
2021/06/24 12:37:36;;;;;;;6.33;5.73;;;17.50;72.90;;;;;;5050390;28;20045;-70
2021/06/24 12:40:07;;;;;;;6.97;5.33;;;17.50;72.40;;;;;;5050880;28;20048;-71
2021/06/24 12:42:33;;;;;;;5.53;4.97;;;17.50;72.60;;;;;;5050081;28;20056;-71
2021/06/24 12:45:00;;;;;;;6.73;5.27;;;17.40;73.00;;;;;;5051166;28;20048;-71
2021/06/24 12:47:41;;;;;;;6.60;5.93;;;17.40;72.90;;;;;;5051069;28;20045;-71
2021/06/24 12:50:12;;;;;;;7.27;5.50;;;17.30;72.40;;;;;;5051443;28;20094;-71
2021/06/24 12:52:46;;;;;;;5.43;4.93;;;17.30;73.00;;;;;;5052906;28;20482;-72
2021/06/24 12:55:52;;;;;;;6.60;5.70;;;17.30;73.00;;;;;;5050532;28;20107;-69
2021/06/24 12:58:27;;;;;;;5.90;5.27;;;17.30;72.90;;;;;;5050932;28;20429;-70
2021/06/24 13:01:12;;;;;;;8.77;4.83;;;17.30;72.60;;;;;;5051480;28;20115;-70
2021/06/24 13:03:47;;;;;;;7.40;5.97;;;17.30;72.80;;;;;;5050690;28;20486;-70
2021/06/24 13:06:17;;;;;;;7.27;6.50;;;17.30;73.20;;;;;;5051050;28;20114;-70